createdAt,value
2019-01-10T00:00:25.164Z,4.00
2019-01-10T00:02:54.110Z,5.07
2019-01-10T00:05:23.041Z,5.93
2019-01-10T00:07:51.926Z,6.53
2019-01-10T00:10:20.857Z,3.60
2019-01-10T00:12:49.658Z,2.10
2019-01-10T00:15:18.811Z,4.97
2019-01-10T00:17:49.995Z,5.77
2019-01-10T00:20:18.503Z,4.67
2019-01-10T00:22:47.442Z,5.67
2019-01-10T00:25:16.524Z,4.20
2019-01-10T00:27:45.309Z,4.40
2019-01-10T00:30:16.595Z,5.47
2019-01-10T00:32:45.573Z,5.17
2019-01-10T00:35:14.636Z,6.63
2019-01-10T00:37:43.570Z,6.13
2019-01-10T00:40:13.801Z,7.93
2019-01-10T00:42:49.281Z,7.53
2019-01-10T00:45:15.355Z,4.20
2019-01-10T00:47:44.693Z,6.63
2019-01-10T00:50:16.116Z,4.70
2019-01-10T00:52:45.065Z,6.40
2019-01-10T00:55:14.040Z,4.57
2019-01-10T00:57:43.277Z,5.07
2019-01-10T01:00:15.979Z,4.67
2019-01-10T01:02:44.830Z,5.83
2019-01-10T01:05:14.550Z,7.53
2019-01-10T01:07:43.599Z,4.73
2019-01-10T01:10:15.818Z,2.53
2019-01-10T01:12:44.750Z,6.07
2019-01-10T01:15:15.135Z,7.17
2019-01-10T01:17:43.991Z,6.50
2019-01-10T01:20:14.032Z,5.27
2019-01-10T01:22:42.898Z,7.43
2019-01-10T01:25:11.886Z,4.73
2019-01-10T01:27:40.741Z,4.27
2019-01-10T01:30:12.874Z,4.67
2019-01-10T01:32:41.684Z,6.03
2019-01-10T01:35:10.770Z,4.87
2019-01-10T01:37:39.595Z,4.67
2019-01-10T01:40:09.664Z,5.37
2019-01-10T01:42:38.605Z,5.83
2019-01-10T01:45:08.770Z,5.00
2019-01-10T01:47:37.808Z,4.33
2019-01-10T01:50:08.691Z,7.37
2019-01-10T01:52:37.631Z,4.70
2019-01-10T01:55:06.930Z,7.73
2019-01-10T01:57:35.849Z,5.67
2019-01-10T02:00:08.930Z,4.80
2019-01-10T02:02:37.730Z,4.50
2019-01-10T02:05:07.343Z,5.93
2019-01-10T02:07:36.264Z,3.07
2019-01-10T02:10:07.610Z,5.77
2019-01-10T02:12:36.384Z,4.90
2019-01-10T02:15:05.655Z,5.20
2019-01-10T02:17:34.507Z,4.50
2019-01-10T02:20:04.307Z,5.70
2019-01-10T02:22:33.555Z,5.73
2019-01-10T02:25:02.418Z,3.07
2019-01-10T02:27:31.369Z,3.60
2019-01-10T02:30:00.304Z,4.63
2019-01-10T02:32:29.192Z,5.57
2019-01-10T02:34:58.052Z,4.37
2019-01-10T02:37:27.000Z,5.83
2019-01-10T02:39:55.847Z,3.97
2019-01-10T02:42:24.672Z,5.70
2019-01-10T02:44:53.462Z,5.83
2019-01-10T02:47:22.284Z,3.90
2019-01-10T02:49:51.180Z,3.57
2019-01-10T02:52:20.107Z,4.83
2019-01-10T02:54:48.900Z,5.03
2019-01-10T02:57:17.708Z,4.23
2019-01-10T02:59:46.479Z,4.90
2019-01-10T03:02:15.264Z,4.43
2019-01-10T03:04:44.048Z,4.73
2019-01-10T03:07:12.928Z,3.90
2019-01-10T03:09:41.789Z,3.10
2019-01-10T03:12:10.666Z,4.33
2019-01-10T03:14:39.443Z,6.67
2019-01-10T03:17:08.261Z,4.50
2019-01-10T03:19:37.103Z,6.10
2019-01-10T03:22:05.913Z,3.57
2019-01-10T03:24:35.082Z,6.43
2019-01-10T03:27:03.997Z,6.03
2019-01-10T03:29:32.847Z,7.07
2019-01-10T03:32:01.668Z,7.10
2019-01-10T03:34:30.619Z,3.53
2019-01-10T03:36:59.420Z,4.77
2019-01-10T03:39:28.282Z,10.30
2019-01-10T03:41:57.091Z,6.43
2019-01-10T03:44:34.120Z,7.23
2019-01-10T03:46:56.627Z,6.83
2019-01-10T03:49:25.436Z,5.23
2019-01-10T03:51:54.293Z,4.27
2019-01-10T03:54:23.156Z,7.73
2019-01-10T03:56:52.188Z,8.07
2019-01-10T03:59:21.042Z,6.10
2019-01-10T04:01:49.927Z,5.57
2019-01-10T04:04:18.731Z,7.63
2019-01-10T04:06:47.678Z,5.40
2019-01-10T04:09:16.683Z,5.40
2019-01-10T04:11:45.511Z,5.23
2019-01-10T04:14:14.323Z,5.47
2019-01-10T04:16:43.192Z,5.17
2019-01-10T04:19:12.141Z,4.97
2019-01-10T04:21:41.013Z,6.17
2019-01-10T04:24:09.819Z,5.13
2019-01-10T04:26:38.611Z,8.33
2019-01-10T04:29:07.419Z,10.77
2019-01-10T04:31:36.236Z,12.77
2019-01-10T04:34:05.119Z,8.33
2019-01-10T04:36:33.971Z,9.27
2019-01-10T04:39:03.182Z,8.70
2019-01-10T04:41:31.981Z,6.50
2019-01-10T04:44:06.920Z,7.17
2019-01-10T04:46:31.294Z,6.60
2019-01-10T04:49:00.108Z,8.07
2019-01-10T04:51:28.895Z,4.43
2019-01-10T04:53:57.697Z,7.70
2019-01-10T04:56:26.482Z,7.43
2019-01-10T04:58:55.275Z,5.53
2019-01-10T05:01:24.062Z,9.37
2019-01-10T05:03:52.863Z,7.67
2019-01-10T05:06:21.655Z,8.17
2019-01-10T05:08:50.553Z,7.30
2019-01-10T05:11:19.454Z,7.70
2019-01-10T05:13:48.242Z,5.30
2019-01-10T05:16:17.113Z,9.63
2019-01-10T05:18:45.983Z,8.10
2019-01-10T05:21:14.775Z,7.93
2019-01-10T05:23:43.648Z,4.93
2019-01-10T05:26:12.477Z,8.23
2019-01-10T05:28:41.447Z,7.57
2019-01-10T05:31:10.319Z,8.40
2019-01-10T05:33:39.110Z,7.47
2019-01-10T05:36:08.060Z,11.17
2019-01-10T05:38:36.907Z,9.00
2019-01-10T05:41:05.790Z,8.00
2019-01-10T05:43:34.564Z,7.53
2019-01-10T05:46:03.375Z,10.97
2019-01-10T05:48:32.151Z,7.87
2019-01-10T05:51:00.956Z,9.10
2019-01-10T05:53:29.806Z,6.23
2019-01-10T05:55:58.611Z,10.67
2019-01-10T05:58:27.389Z,9.93
2019-01-10T06:00:56.259Z,11.93
2019-01-10T06:03:25.038Z,9.33
2019-01-10T06:05:53.849Z,12.70
2019-01-10T06:08:22.641Z,8.43
2019-01-10T06:10:51.458Z,8.50
2019-01-10T06:13:20.243Z,7.97
2019-01-10T06:15:49.117Z,13.40
2019-01-10T06:18:17.903Z,8.80
2019-01-10T06:20:46.704Z,11.93
2019-01-10T06:23:15.498Z,6.77
2019-01-10T06:25:44.371Z,9.83
2019-01-10T06:28:13.239Z,11.53
2019-01-10T06:30:42.038Z,10.90
2019-01-10T06:33:10.936Z,10.03
2019-01-10T06:35:39.960Z,9.17
2019-01-10T06:38:08.823Z,12.47
2019-01-10T06:40:37.630Z,11.27
2019-01-10T06:43:06.423Z,13.50
2019-01-10T06:45:35.210Z,11.10
2019-01-10T06:48:04.143Z,11.23
2019-01-10T06:50:32.946Z,10.53
2019-01-10T06:53:01.734Z,12.80
2019-01-10T06:55:30.535Z,13.83
2019-01-10T06:57:59.393Z,26.03
2019-01-10T07:00:28.199Z,22.03
2019-01-10T07:02:56.987Z,17.30
2019-01-10T07:05:25.802Z,13.80
2019-01-10T07:07:56.695Z,14.90
2019-01-10T07:10:28.952Z,15.93
2019-01-10T07:12:57.971Z,14.40
2019-01-10T07:15:26.829Z,12.87
2019-01-10T07:17:55.708Z,9.53
2019-01-10T07:20:24.655Z,11.07
2019-01-10T07:22:54.559Z,12.90
2019-01-10T07:25:23.351Z,13.87
2019-01-10T07:27:52.232Z,12.30
2019-01-10T07:30:35.472Z,12.80
2019-01-10T07:32:56.838Z,13.17
2019-01-10T07:35:25.831Z,12.33
2019-01-10T07:37:57.753Z,10.47
2019-01-10T07:40:27.503Z,13.17
2019-01-10T07:42:56.717Z,11.10
2019-01-10T07:45:26.931Z,9.30
2019-01-10T07:47:55.814Z,13.70
2019-01-10T07:50:31.002Z,9.97
2019-01-10T07:52:59.966Z,14.23
2019-01-10T07:55:28.814Z,13.10
2019-01-10T07:57:57.737Z,11.83
2019-01-10T08:00:26.587Z,13.90
2019-01-10T08:02:55.478Z,11.47
2019-01-10T08:05:24.272Z,21.50
2019-01-10T08:07:53.163Z,19.50
2019-01-10T08:10:22.023Z,15.57
2019-01-10T08:12:50.988Z,12.77
2019-01-10T08:15:21.169Z,13.00
2019-01-10T08:17:50.211Z,10.03
2019-01-10T08:20:19.642Z,11.57
2019-01-10T08:22:48.519Z,13.70
2019-01-10T08:25:17.381Z,15.17
2019-01-10T08:27:46.338Z,11.63
2019-01-10T08:30:20.837Z,11.87
2019-01-10T08:32:49.748Z,11.53
2019-01-10T08:35:22.205Z,17.23
2019-01-10T08:37:51.129Z,14.63
2019-01-10T08:40:20.132Z,17.37
2019-01-10T08:42:48.932Z,13.43
2019-01-10T08:45:21.940Z,12.97
2019-01-10T08:48:07.748Z,12.03
2019-01-10T08:50:36.789Z,14.47
2019-01-10T08:53:05.740Z,12.40
2019-01-10T08:55:34.641Z,15.73
2019-01-10T08:58:03.616Z,10.70
2019-01-10T09:00:32.516Z,12.77
2019-01-10T09:03:01.405Z,11.93
2019-01-10T09:05:30.229Z,14.27
2019-01-10T09:07:59.048Z,12.70
2019-01-10T09:10:30.319Z,17.50
2019-01-10T09:12:59.277Z,16.27
2019-01-10T09:15:34.481Z,11.40
2019-01-10T09:17:58.874Z,17.27
2019-01-10T09:20:27.901Z,32.77
2019-01-10T09:22:56.715Z,33.70
2019-01-10T09:25:25.775Z,34.07
2019-01-10T09:27:54.756Z,23.30
2019-01-10T09:30:23.582Z,30.70
2019-01-10T09:32:52.569Z,24.87
2019-01-10T09:35:21.560Z,40.87
2019-01-10T09:37:50.763Z,15.97
2019-01-10T09:40:20.980Z,15.17
2019-01-10T09:42:50.088Z,13.67
2019-01-10T09:45:21.549Z,13.50
2019-01-10T09:47:50.452Z,13.03
2019-01-10T09:50:20.144Z,13.83
2019-01-10T09:52:49.598Z,11.60
2019-01-10T09:55:18.588Z,11.70
2019-01-10T09:57:47.558Z,11.30
2019-01-10T10:00:22.186Z,11.27
2019-01-10T10:02:51.087Z,11.93
2019-01-10T10:05:20.370Z,11.37
2019-01-10T10:07:49.436Z,10.70
2019-01-10T10:10:19.086Z,11.60
2019-01-10T10:12:48.057Z,9.50
2019-01-10T10:15:17.733Z,14.83
2019-01-10T10:17:46.678Z,13.20
2019-01-10T10:20:17.747Z,11.27
2019-01-10T10:22:46.694Z,9.83
2019-01-10T10:25:15.587Z,11.73
2019-01-10T10:27:44.533Z,10.10
2019-01-10T10:30:15.881Z,9.37
2019-01-10T10:32:44.771Z,8.73
2019-01-10T10:35:13.838Z,10.63
2019-01-10T10:37:42.804Z,10.67
2019-01-10T10:40:17.021Z,14.53
2019-01-10T10:42:46.033Z,12.27
2019-01-10T10:45:16.673Z,12.80
2019-01-10T10:47:45.713Z,12.97
2019-01-10T10:50:17.002Z,10.70
2019-01-10T10:52:45.891Z,11.87
2019-01-10T10:55:14.864Z,8.10
2019-01-10T10:57:44.270Z,11.40
2019-01-10T11:00:18.190Z,11.60
2019-01-10T11:02:47.139Z,11.10
2019-01-10T11:05:16.015Z,14.07
2019-01-10T11:07:44.965Z,15.23
2019-01-10T11:10:15.419Z,16.67
2019-01-10T11:12:44.409Z,21.13
2019-01-10T11:15:13.654Z,25.50
2019-01-10T11:17:42.526Z,15.27
2019-01-10T11:20:14.122Z,23.57
2019-01-10T11:22:43.267Z,13.33
2019-01-10T11:25:15.014Z,8.40
2019-01-10T11:27:43.954Z,12.97
2019-01-10T11:30:14.993Z,9.90
2019-01-10T11:32:43.987Z,9.93
2019-01-10T11:35:12.968Z,11.33
2019-01-10T11:37:42.032Z,14.77
2019-01-10T11:40:13.023Z,7.90
2019-01-10T11:42:41.971Z,9.23
2019-01-10T11:45:14.159Z,9.37
2019-01-10T11:47:43.055Z,7.90
2019-01-10T11:50:12.762Z,10.77
2019-01-10T11:52:41.643Z,7.47
2019-01-10T11:55:10.788Z,9.53
2019-01-10T11:57:39.759Z,8.77
2019-01-10T12:00:13.538Z,10.43
2019-01-10T12:02:42.411Z,8.50
2019-01-10T12:05:11.281Z,8.53
2019-01-10T12:07:40.277Z,7.00
2019-01-10T12:10:10.007Z,7.73
2019-01-10T12:12:38.958Z,6.90
2019-01-10T12:15:09.886Z,9.27
2019-01-10T12:17:39.014Z,12.30
2019-01-10T12:20:09.854Z,8.57
2019-01-10T12:22:38.986Z,7.23
2019-01-10T12:25:10.102Z,8.40
2019-01-10T12:27:38.982Z,9.27
2019-01-10T12:30:10.855Z,9.37
2019-01-10T12:32:39.678Z,8.03
2019-01-10T12:35:08.927Z,7.87
2019-01-10T12:37:37.806Z,9.70
2019-01-10T12:40:08.651Z,6.20
2019-01-10T12:42:37.547Z,8.13
2019-01-10T12:45:07.563Z,8.97
2019-01-10T12:47:36.463Z,7.00
2019-01-10T12:50:08.611Z,7.77
2019-01-10T12:52:37.415Z,7.93
2019-01-10T12:55:06.394Z,7.53
2019-01-10T12:57:35.182Z,8.83
2019-01-10T13:00:05.715Z,9.07
2019-01-10T13:02:34.514Z,11.07
2019-01-10T13:05:03.594Z,8.70
2019-01-10T13:07:32.478Z,8.53
2019-01-10T13:10:01.332Z,8.13
2019-01-10T13:12:30.209Z,8.80
2019-01-10T13:14:59.195Z,6.93
2019-01-10T13:17:28.058Z,9.30
2019-01-10T13:19:57.072Z,6.77
2019-01-10T13:22:26.022Z,5.73
2019-01-10T13:24:55.146Z,9.93
2019-01-10T13:27:23.944Z,8.53
2019-01-10T13:29:52.747Z,6.20
2019-01-10T13:32:21.676Z,12.37
2019-01-10T13:34:50.463Z,9.43
2019-01-10T13:37:19.414Z,9.07
2019-01-10T13:39:48.227Z,6.20
2019-01-10T13:42:17.255Z,7.83
2019-01-10T13:44:46.107Z,8.57
2019-01-10T13:47:15.059Z,7.07
2019-01-10T13:49:43.868Z,6.87
2019-01-10T13:52:12.670Z,7.37
2019-01-10T13:54:41.538Z,7.17
2019-01-10T13:57:10.412Z,8.67
2019-01-10T13:59:39.326Z,9.00
2019-01-10T14:02:08.191Z,13.60
2019-01-10T14:04:37.167Z,8.50
2019-01-10T14:07:06.119Z,13.73
2019-01-10T14:09:35.082Z,28.87
2019-01-10T14:12:04.339Z,32.17
2019-01-10T14:14:33.230Z,10.77
2019-01-10T14:17:02.204Z,16.27
2019-01-10T14:19:31.092Z,8.83
2019-01-10T14:21:59.954Z,10.53
2019-01-10T14:24:28.781Z,8.40
2019-01-10T14:26:57.663Z,9.03
2019-01-10T14:29:27.027Z,7.80
2019-01-10T14:31:55.926Z,9.07
2019-01-10T14:34:25.006Z,20.17
2019-01-10T14:36:53.963Z,22.87
2019-01-10T14:39:22.749Z,47.23
2019-01-10T14:41:51.639Z,8.90
2019-01-10T14:44:20.499Z,6.30
2019-01-10T14:46:49.306Z,6.77
2019-01-10T14:49:18.155Z,8.00
2019-01-10T14:51:47.046Z,6.73
2019-01-10T14:54:15.840Z,10.03
2019-01-10T14:56:44.722Z,11.53
2019-01-10T14:59:13.595Z,7.20
2019-01-10T15:01:42.567Z,9.23
2019-01-10T15:04:11.356Z,10.07
2019-01-10T15:06:40.192Z,8.77
2019-01-10T15:09:09.137Z,9.17
2019-01-10T15:11:38.011Z,26.53
2019-01-10T15:14:06.968Z,24.77
2019-01-10T15:16:36.132Z,15.60
2019-01-10T15:19:05.407Z,15.60
2019-01-10T15:21:34.275Z,21.27
2019-01-10T15:24:03.315Z,21.40
2019-01-10T15:26:32.184Z,17.83
2019-01-10T15:29:01.003Z,17.13
2019-01-10T15:31:29.888Z,12.90
2019-01-10T15:33:58.755Z,18.63
2019-01-10T15:36:27.686Z,13.93
2019-01-10T15:38:56.523Z,16.30
2019-01-10T15:41:25.324Z,13.73
2019-01-10T15:43:54.150Z,17.53
2019-01-10T15:46:23.048Z,11.07
2019-01-10T15:48:51.919Z,13.00
2019-01-10T15:51:20.734Z,12.83
2019-01-10T15:53:49.591Z,12.87
2019-01-10T15:56:18.583Z,10.27
2019-01-10T15:58:47.381Z,15.83
2019-01-10T16:01:16.297Z,12.77
2019-01-10T16:03:45.174Z,9.80
2019-01-10T16:06:13.998Z,14.00
2019-01-10T16:08:42.867Z,12.50
2019-01-10T16:11:11.772Z,17.27
2019-01-10T16:13:40.719Z,16.47
2019-01-10T16:16:09.604Z,14.60
2019-01-10T16:18:38.412Z,18.77
2019-01-10T16:21:07.284Z,15.87
2019-01-10T16:23:36.130Z,16.53
2019-01-10T16:26:05.092Z,14.20
2019-01-10T16:28:34.269Z,16.00
2019-01-10T16:31:03.322Z,16.57
2019-01-10T16:33:32.120Z,14.40
2019-01-10T16:36:00.962Z,15.03
2019-01-10T16:38:29.829Z,15.93
2019-01-10T16:40:58.641Z,17.83
2019-01-10T16:43:27.448Z,17.57
2019-01-10T16:45:56.290Z,11.70
2019-01-10T16:48:25.115Z,12.97
2019-01-10T16:50:53.969Z,21.27
2019-01-10T16:53:24.053Z,14.97
2019-01-10T16:55:53.047Z,23.63
2019-01-10T16:58:21.862Z,12.65
2019-01-10T17:00:50.678Z,11.63
2019-01-10T17:03:19.574Z,14.93
2019-01-10T17:05:48.443Z,16.57
2019-01-10T17:08:18.374Z,16.50
2019-01-10T17:10:47.439Z,14.40
2019-01-10T17:13:16.392Z,13.17
2019-01-10T17:15:46.302Z,15.90
2019-01-10T17:18:15.306Z,13.43
2019-01-10T17:20:44.142Z,15.80
2019-01-10T17:23:13.032Z,13.40
2019-01-10T17:25:41.842Z,18.50
2019-01-10T17:28:10.816Z,19.60
2019-01-10T17:30:39.616Z,15.53
2019-01-10T17:33:08.465Z,16.50
2019-01-10T17:35:37.345Z,11.57
2019-01-10T17:38:07.247Z,13.37
2019-01-10T17:40:36.993Z,16.40
2019-01-10T17:43:06.772Z,15.00
2019-01-10T17:45:36.986Z,14.73
2019-01-10T17:48:08.507Z,17.60
2019-01-10T17:50:37.421Z,14.67
2019-01-10T17:53:06.396Z,14.10
2019-01-10T17:55:35.382Z,14.13
2019-01-10T17:58:04.679Z,15.63
2019-01-10T18:00:33.469Z,16.30
2019-01-10T18:03:02.278Z,14.07
2019-01-10T18:05:31.219Z,14.50
2019-01-10T18:08:00.175Z,13.73
2019-01-10T18:10:29.037Z,15.40
2019-01-10T18:12:57.995Z,17.37
2019-01-10T18:15:27.043Z,20.53
2019-01-10T18:17:56.099Z,15.57
2019-01-10T18:20:27.865Z,16.27
2019-01-10T18:22:56.754Z,16.73
2019-01-10T18:25:25.613Z,16.93
2019-01-10T18:27:54.501Z,15.60
2019-01-10T18:30:23.618Z,16.83
2019-01-10T18:32:52.778Z,17.03
2019-01-10T18:35:25.979Z,14.80
2019-01-10T18:37:53.146Z,13.90
2019-01-10T18:40:22.507Z,15.97
2019-01-10T18:42:51.771Z,17.27
2019-01-10T18:45:23.218Z,19.33
2019-01-10T18:47:56.900Z,22.50
2019-01-10T18:50:23.547Z,23.27
2019-01-10T18:52:52.594Z,20.00
2019-01-10T18:55:21.815Z,17.73
2019-01-10T18:57:50.865Z,16.50
2019-01-10T19:00:25.442Z,20.17
2019-01-10T19:02:54.655Z,15.83
2019-01-10T19:05:24.766Z,21.33
2019-01-10T19:07:54.034Z,18.73
2019-01-10T19:10:24.231Z,15.93
2019-01-10T19:12:53.529Z,18.50
2019-01-10T19:15:22.675Z,16.60
2019-01-10T19:17:51.615Z,15.17
2019-01-10T19:20:23.116Z,16.80
2019-01-10T19:22:52.332Z,16.83
2019-01-10T19:25:21.430Z,15.53
2019-01-10T19:27:50.455Z,16.73
2019-01-10T19:30:24.538Z,19.93
2019-01-10T19:32:53.832Z,21.70
2019-01-10T19:35:22.927Z,19.03
2019-01-10T19:37:52.328Z,18.77
2019-01-10T19:40:21.930Z,16.03
2019-01-10T19:42:50.926Z,16.97
2019-01-10T19:45:20.486Z,17.70
2019-01-10T19:47:49.550Z,18.30
2019-01-10T19:50:20.611Z,17.87
2019-01-10T19:52:51.006Z,17.60
2019-01-10T19:55:20.844Z,20.80
2019-01-10T19:57:51.082Z,17.03
2019-01-10T20:00:44.023Z,21.47
2019-01-10T20:03:13.134Z,18.80
2019-01-10T20:05:42.158Z,19.37
2019-01-10T20:08:11.210Z,20.30
2019-01-10T20:10:40.321Z,17.50
2019-01-10T20:13:09.311Z,19.40
2019-01-10T20:15:38.271Z,16.97
2019-01-10T20:18:07.521Z,21.90
2019-01-10T20:20:40.891Z,18.47
2019-01-10T20:23:15.274Z,18.73
2019-01-10T20:25:44.347Z,19.13
2019-01-10T20:28:20.734Z,20.03
2019-01-10T20:30:49.814Z,22.37
2019-01-10T20:33:18.714Z,17.10
2019-01-10T20:35:47.883Z,20.00
2019-01-10T20:38:16.964Z,20.40
2019-01-10T20:40:46.721Z,19.60
2019-01-10T20:43:15.646Z,19.93
2019-01-10T20:45:44.646Z,21.57
2019-01-10T20:48:13.678Z,20.57
2019-01-10T20:50:42.754Z,20.50
2019-01-10T20:53:11.923Z,23.13
2019-01-10T20:55:41.284Z,22.53
2019-01-10T20:58:10.428Z,22.17
2019-01-10T21:00:39.410Z,25.53
2019-01-10T21:03:08.424Z,21.87
2019-01-10T21:05:37.484Z,23.13
2019-01-10T21:08:06.425Z,26.70
2019-01-10T21:10:35.550Z,25.27
2019-01-10T21:13:04.648Z,29.13
2019-01-10T21:15:33.715Z,32.40
2019-01-10T21:18:02.696Z,25.93
2019-01-10T21:20:31.766Z,28.90
2019-01-10T21:23:00.803Z,30.13
2019-01-10T21:25:29.777Z,35.17
2019-01-10T21:27:58.825Z,31.87
2019-01-10T21:30:27.812Z,30.57
2019-01-10T21:32:56.636Z,29.03
2019-01-10T21:35:25.437Z,33.13
2019-01-10T21:37:54.235Z,32.27
2019-01-10T21:40:23.654Z,32.80
2019-01-10T21:42:53.731Z,34.80
2019-01-10T21:45:23.557Z,32.57
2019-01-10T21:47:52.438Z,37.40
2019-01-10T21:50:23.610Z,33.47
2019-01-10T21:52:53.179Z,37.30
2019-01-10T21:55:22.606Z,39.40
2019-01-10T21:57:51.492Z,39.00
2019-01-10T22:00:28.747Z,36.27
2019-01-10T22:02:58.406Z,40.37
2019-01-10T22:05:27.402Z,39.00
2019-01-10T22:07:56.367Z,41.63
2019-01-10T22:10:25.386Z,38.50
2019-01-10T22:12:54.300Z,41.63
2019-01-10T22:15:23.250Z,42.67
2019-01-10T22:17:52.105Z,42.73
2019-01-10T22:20:21.125Z,46.33
2019-01-10T22:22:50.091Z,46.83
2019-01-10T22:25:18.984Z,46.13
2019-01-10T22:27:47.794Z,45.27
2019-01-10T22:30:19.153Z,44.47
2019-01-10T22:32:48.435Z,41.50
2019-01-10T22:35:18.718Z,48.40
2019-01-10T22:37:47.674Z,48.23
2019-01-10T22:40:18.180Z,46.73
2019-01-10T22:42:47.148Z,44.70
2019-01-10T22:45:16.798Z,44.73
2019-01-10T22:47:45.864Z,44.83
2019-01-10T22:50:17.215Z,49.97
2019-01-10T22:52:46.131Z,53.67
2019-01-10T22:55:15.476Z,46.70
2019-01-10T22:57:44.359Z,49.73
2019-01-10T23:01:10.129Z,51.43
2019-01-10T23:03:43.154Z,47.80
2019-01-10T23:06:12.102Z,53.37
2019-01-10T23:08:45.313Z,51.03
2019-01-10T23:11:22.044Z,51.67
2019-01-10T23:14:08.961Z,53.90
2019-01-10T23:16:37.949Z,53.83
2019-01-10T23:19:07.335Z,49.17
2019-01-10T23:21:38.193Z,50.07
2019-01-10T23:24:12.034Z,52.17
2019-01-10T23:26:44.026Z,51.40
2019-01-10T23:29:12.920Z,46.93
2019-01-10T23:31:41.806Z,48.20
2019-01-10T23:34:11.541Z,46.60
2019-01-10T23:36:40.428Z,43.03
2019-01-10T23:39:14.754Z,45.50
2019-01-10T23:41:43.618Z,45.07
2019-01-10T23:44:12.445Z,41.90
2019-01-10T23:46:41.311Z,40.53
2019-01-10T23:49:10.754Z,40.90
2019-01-10T23:51:39.966Z,38.07
2019-01-10T23:54:08.850Z,38.20
2019-01-10T23:56:37.721Z,37.10
2019-01-10T23:59:06.689Z,36.50
